NAMSOS_LUFTHAVN current weather conditions

sailwx.info

Wind from 070 at 12 knots

Air temperature 4.0° C
Visibility: greater than 5.4 NM
Dewpoint -1.0° C
Present weather: Showers in the vicinity.

Last reported at 2019-Dec-14 09:50 UTC.
Time now 2019-Dec-14 13:48 UTC

Location: N 64°28' E 011°35'.
View on Google Maps.

See reports from other nearby stations

  
Tides and Currents Weather Stations Pressure Air Temp Water Temp Dewpoint Dewpoint Depression Visibility Wind Speed Wind Dir Waves Ship Positions
date/time (UTC)wind fromknots sea level pressurealtimeterstation pressurevisibilityair tempwater tempwave heightnotes
2019-Dec-14 09:50 070 12 5.4 4.0 Showers in the vicinity.
2019-Dec-14 08:50 070 17 5.4 4.0 Showers in the vicinity.
2019-Dec-14 07:50 070 15 5.4 4.0
2019-Dec-14 07:20 090 14 5.4 4.0
2019-Dec-14 06:50 090 19 5.4 5.0
2019-Dec-13 20:50 070 14 5.4 1.0
2019-Dec-13 20:20 080 14 5.4-0.0
2019-Dec-13 19:50 070 13 5.4-0.0
2019-Dec-13 18:50 060 13 5.4-1.0
2019-Dec-13 17:50 070 12 5.4-0.0
2019-Dec-13 16:50 090 12 5.4-0.0
2019-Dec-13 15:50 090 12 5.4 1.0
2019-Dec-13 14:50 080 13 5.4 1.0
2019-Dec-13 13:50 080 11 5.4 1.0
2019-Dec-13 13:20 110 7 5.4 1.0
2019-Dec-13 12:50 050 11 5.4-1.0
2019-Dec-13 12:20 050 12 5.4-2.0
2019-Dec-13 11:50 040 12 5.4-2.0
2019-Dec-13 11:20 050 13 5.4-2.0
2019-Dec-13 10:50 040 13 5.4-2.0
2019-Dec-13 10:20 050 12 5.4-2.0
2019-Dec-13 09:50 040 12 5.4-2.0
2019-Dec-13 09:20 050 13 5.4-2.0
2019-Dec-13 08:50 040 11 5.4-1.0
2019-Dec-13 08:20 040 9 5.4-1.0
2019-Dec-13 07:50 050 11 5.4-1.0
2019-Dec-13 07:20 050 12 5.4-1.0
2019-Dec-13 06:50 050 12 5.4-0.0
2019-Dec-13 06:20 050 13 5.4 1.0
2019-Dec-13 05:50 050 9 5.4-0.0
2019-Dec-13 05:20 050 8 5.4 1.0
2019-Dec-12 20:50 120 4 5.4 5.0
2019-Dec-12 20:20 050 2 5.4 3.0
2019-Dec-12 19:50 060 5 5.4 4.0
2019-Dec-12 19:20 060 7 5.4 3.0
2019-Dec-12 18:50 070 6 5.4 4.0
2019-Dec-12 18:20 060 8 5.4 3.0
2019-Dec-12 17:50 050 7 5.4 3.0
2019-Dec-12 17:20 040 5 5.4 4.0
2019-Dec-12 16:20 060 6 5.4 4.0
2019-Dec-12 15:50 070 5 5.4 5.0
2019-Dec-12 15:20 090 5 5.4 5.0
2019-Dec-12 14:50 100 5 5.4 5.0
2019-Dec-12 14:20 070 6 5.4 5.0
2019-Dec-12 13:50 060 7 5.4 5.0
2019-Dec-12 13:20 5.4 6.0